sensor_id;sensor_type;location;lat;lon;timestamp;P1;durP1;ratioP1;P2;durP2;ratioP2
51778;SDS011;37843;53.266;6.746;2022-07-10T00:01:08;4.00;;;1.27;;
51778;SDS011;37843;53.266;6.746;2022-07-10T00:03:33;4.75;;;1.58;;
51778;SDS011;37843;53.266;6.746;2022-07-10T00:05:59;4.53;;;1.50;;
51778;SDS011;37843;53.266;6.746;2022-07-10T00:08:26;4.35;;;1.50;;
51778;SDS011;37843;53.266;6.746;2022-07-10T00:10:51;6.18;;;1.88;;
51778;SDS011;37843;53.266;6.746;2022-07-10T00:13:17;4.18;;;1.83;;
51778;SDS011;37843;53.266;6.746;2022-07-10T00:15:43;4.85;;;1.50;;
51778;SDS011;37843;53.266;6.746;2022-07-10T00:18:09;7.45;;;1.80;;
51778;SDS011;37843;53.266;6.746;2022-07-10T00:20:34;5.22;;;1.55;;
51778;SDS011;37843;53.266;6.746;2022-07-10T00:23:01;6.85;;;1.95;;
51778;SDS011;37843;53.266;6.746;2022-07-10T00:25:27;3.75;;;1.65;;
51778;SDS011;37843;53.266;6.746;2022-07-10T00:27:53;6.68;;;1.70;;
51778;SDS011;37843;53.266;6.746;2022-07-10T00:30:19;4.03;;;1.38;;
51778;SDS011;37843;53.266;6.746;2022-07-10T00:32:44;6.90;;;1.73;;
51778;SDS011;37843;53.266;6.746;2022-07-10T00:35:10;4.75;;;1.80;;
51778;SDS011;37843;53.266;6.746;2022-07-10T00:37:36;10.82;;;1.92;;
51778;SDS011;37843;53.266;6.746;2022-07-10T00:40:02;4.78;;;1.90;;
51778;SDS011;37843;53.266;6.746;2022-07-10T00:42:29;8.88;;;1.90;;
51778;SDS011;37843;53.266;6.746;2022-07-10T00:44:55;13.60;;;2.17;;
51778;SDS011;37843;53.266;6.746;2022-07-10T00:47:21;5.57;;;1.83;;
51778;SDS011;37843;53.266;6.746;2022-07-10T00:49:47;6.05;;;1.30;;
51778;SDS011;37843;53.266;6.746;2022-07-10T00:52:13;4.35;;;1.38;;
51778;SDS011;37843;53.266;6.746;2022-07-10T00:54:47;5.55;;;1.70;;
51778;SDS011;37843;53.266;6.746;2022-07-10T00:57:17;6.05;;;1.52;;
51778;SDS011;37843;53.266;6.746;2022-07-10T00:59:44;5.80;;;2.10;;
51778;SDS011;37843;53.266;6.746;2022-07-10T01:02:10;5.53;;;1.52;;
51778;SDS011;37843;53.266;6.746;2022-07-10T01:04:36;6.75;;;1.75;;
51778;SDS011;37843;53.266;6.746;2022-07-10T01:07:02;4.55;;;1.63;;
51778;SDS011;37843;53.266;6.746;2022-07-10T01:09:28;4.82;;;1.52;;
51778;SDS011;37843;53.266;6.746;2022-07-10T01:11:55;6.45;;;1.38;;
51778;SDS011;37843;53.266;6.746;2022-07-10T01:14:22;5.80;;;1.55;;
51778;SDS011;37843;53.266;6.746;2022-07-10T01:16:48;3.75;;;1.27;;
51778;SDS011;37843;53.266;6.746;2022-07-10T01:19:15;5.50;;;2.13;;
51778;SDS011;37843;53.266;6.746;2022-07-10T01:21:41;4.72;;;1.50;;
51778;SDS011;37843;53.266;6.746;2022-07-10T01:24:07;3.90;;;1.45;;
51778;SDS011;37843;53.266;6.746;2022-07-10T01:26:35;5.00;;;1.85;;
51778;SDS011;37843;53.266;6.746;2022-07-10T01:29:05;5.07;;;1.77;;
51778;SDS011;37843;53.266;6.746;2022-07-10T01:31:32;4.13;;;1.60;;
51778;SDS011;37843;53.266;6.746;2022-07-10T01:33:58;7.30;;;1.50;;
51778;SDS011;37843;53.266;6.746;2022-07-10T01:36:25;4.43;;;1.52;;
51778;SDS011;37843;53.266;6.746;2022-07-10T01:38:54;8.05;;;1.67;;
51778;SDS011;37843;53.266;6.746;2022-07-10T01:41:20;5.97;;;1.60;;
51778;SDS011;37843;53.266;6.746;2022-07-10T01:43:46;6.07;;;1.88;;
51778;SDS011;37843;53.266;6.746;2022-07-10T01:46:13;4.32;;;1.83;;
51778;SDS011;37843;53.266;6.746;2022-07-10T01:48:39;4.65;;;1.70;;
51778;SDS011;37843;53.266;6.746;2022-07-10T01:51:05;6.47;;;2.15;;
51778;SDS011;37843;53.266;6.746;2022-07-10T01:53:32;8.20;;;1.63;;
51778;SDS011;37843;53.266;6.746;2022-07-10T01:55:59;5.00;;;1.90;;
51778;SDS011;37843;53.266;6.746;2022-07-10T01:58:28;5.13;;;1.20;;
51778;SDS011;37843;53.266;6.746;2022-07-10T02:00:53;7.47;;;1.80;;
51778;SDS011;37843;53.266;6.746;2022-07-10T02:03:19;7.30;;;1.92;;
51778;SDS011;37843;53.266;6.746;2022-07-10T02:06:04;4.40;;;1.58;;
51778;SDS011;37843;53.266;6.746;2022-07-10T02:08:29;6.60;;;1.50;;
51778;SDS011;37843;53.266;6.746;2022-07-10T02:10:55;4.65;;;1.40;;
51778;SDS011;37843;53.266;6.746;2022-07-10T02:13:21;5.88;;;1.88;;
51778;SDS011;37843;53.266;6.746;2022-07-10T02:15:49;4.63;;;1.75;;
51778;SDS011;37843;53.266;6.746;2022-07-10T02:18:15;9.20;;;1.90;;
51778;SDS011;37843;53.266;6.746;2022-07-10T02:20:41;7.53;;;2.00;;
51778;SDS011;37843;53.266;6.746;2022-07-10T02:23:07;4.95;;;1.73;;
51778;SDS011;37843;53.266;6.746;2022-07-10T02:25:33;6.50;;;1.65;;
51778;SDS011;37843;53.266;6.746;2022-07-10T02:27:59;6.32;;;2.20;;
51778;SDS011;37843;53.266;6.746;2022-07-10T02:30:25;5.97;;;1.80;;
51778;SDS011;37843;53.266;6.746;2022-07-10T02:32:50;4.68;;;1.85;;
51778;SDS011;37843;53.266;6.746;2022-07-10T02:35:16;3.22;;;1.73;;
51778;SDS011;37843;53.266;6.746;2022-07-10T02:37:42;9.43;;;1.60;;
51778;SDS011;37843;53.266;6.746;2022-07-10T02:40:08;4.90;;;1.90;;
51778;SDS011;37843;53.266;6.746;2022-07-10T02:42:34;3.72;;;1.30;;
51778;SDS011;37843;53.266;6.746;2022-07-10T02:45:00;6.18;;;1.75;;
51778;SDS011;37843;53.266;6.746;2022-07-10T02:47:26;4.72;;;1.55;;
51778;SDS011;37843;53.266;6.746;2022-07-10T02:49:51;6.00;;;1.55;;
51778;SDS011;37843;53.266;6.746;2022-07-10T02:52:17;5.25;;;1.48;;
51778;SDS011;37843;53.266;6.746;2022-07-10T02:54:43;5.97;;;2.05;;
51778;SDS011;37843;53.266;6.746;2022-07-10T02:57:08;5.28;;;1.75;;
51778;SDS011;37843;53.266;6.746;2022-07-10T02:59:34;4.80;;;1.40;;
51778;SDS011;37843;53.266;6.746;2022-07-10T03:02:01;7.15;;;1.50;;
51778;SDS011;37843;53.266;6.746;2022-07-10T03:04:26;4.75;;;1.50;;
51778;SDS011;37843;53.266;6.746;2022-07-10T03:06:52;5.07;;;1.30;;
51778;SDS011;37843;53.266;6.746;2022-07-10T03:09:18;4.40;;;1.25;;
51778;SDS011;37843;53.266;6.746;2022-07-10T03:11:44;3.80;;;2.03;;
51778;SDS011;37843;53.266;6.746;2022-07-10T03:14:10;5.35;;;1.85;;
51778;SDS011;37843;53.266;6.746;2022-07-10T03:16:36;4.38;;;1.58;;
51778;SDS011;37843;53.266;6.746;2022-07-10T03:19:02;3.55;;;1.55;;
51778;SDS011;37843;53.266;6.746;2022-07-10T03:21:28;6.38;;;1.80;;
51778;SDS011;37843;53.266;6.746;2022-07-10T03:23:56;5.88;;;1.38;;
51778;SDS011;37843;53.266;6.746;2022-07-10T03:26:21;3.58;;;1.42;;
51778;SDS011;37843;53.266;6.746;2022-07-10T03:28:47;7.95;;;1.60;;
51778;SDS011;37843;53.266;6.746;2022-07-10T03:31:13;3.25;;;1.20;;
51778;SDS011;37843;53.266;6.746;2022-07-10T03:33:39;4.88;;;1.75;;
51778;SDS011;37843;53.266;6.746;2022-07-10T03:36:05;11.00;;;1.52;;
51778;SDS011;37843;53.266;6.746;2022-07-10T03:38:31;4.93;;;1.83;;
51778;SDS011;37843;53.266;6.746;2022-07-10T03:40:57;7.07;;;1.50;;
51778;SDS011;37843;53.266;6.746;2022-07-10T03:43:23;3.10;;;1.50;;
51778;SDS011;37843;53.266;6.746;2022-07-10T03:45:49;4.57;;;1.60;;
51778;SDS011;37843;53.266;6.746;2022-07-10T03:48:16;9.38;;;1.77;;
51778;SDS011;37843;53.266;6.746;2022-07-10T03:50:42;6.88;;;1.80;;
51778;SDS011;37843;53.266;6.746;2022-07-10T03:53:07;7.53;;;1.67;;
51778;SDS011;37843;53.266;6.746;2022-07-10T03:55:33;6.57;;;1.95;;
51778;SDS011;37843;53.266;6.746;2022-07-10T03:57:59;6.68;;;1.77;;
51778;SDS011;37843;53.266;6.746;2022-07-10T04:00:28;3.75;;;1.48;;
51778;SDS011;37843;53.266;6.746;2022-07-10T04:02:58;9.32;;;2.08;;
51778;SDS011;37843;53.266;6.746;2022-07-10T04:05:25;5.72;;;1.83;;
51778;SDS011;37843;53.266;6.746;2022-07-10T04:07:51;6.75;;;1.63;;
51778;SDS011;37843;53.266;6.746;2022-07-10T04:10:18;3.95;;;1.85;;
51778;SDS011;37843;53.266;6.746;2022-07-10T04:12:44;5.32;;;1.73;;
51778;SDS011;37843;53.266;6.746;2022-07-10T04:15:10;9.20;;;1.73;;
51778;SDS011;37843;53.266;6.746;2022-07-10T04:17:36;7.85;;;2.15;;
51778;SDS011;37843;53.266;6.746;2022-07-10T04:20:02;5.65;;;2.08;;
51778;SDS011;37843;53.266;6.746;2022-07-10T04:22:29;5.28;;;2.00;;
51778;SDS011;37843;53.266;6.746;2022-07-10T04:24:55;4.43;;;1.67;;
51778;SDS011;37843;53.266;6.746;2022-07-10T04:27:21;9.68;;;2.58;;
51778;SDS011;37843;53.266;6.746;2022-07-10T04:29:48;5.63;;;1.58;;
51778;SDS011;37843;53.266;6.746;2022-07-10T04:32:14;7.65;;;1.83;;
51778;SDS011;37843;53.266;6.746;2022-07-10T04:34:41;4.97;;;1.73;;
51778;SDS011;37843;53.266;6.746;2022-07-10T04:37:07;4.30;;;1.90;;
51778;SDS011;37843;53.266;6.746;2022-07-10T04:39:34;5.25;;;1.70;;
51778;SDS011;37843;53.266;6.746;2022-07-10T04:42:00;7.22;;;1.67;;
51778;SDS011;37843;53.266;6.746;2022-07-10T04:44:28;8.05;;;2.50;;
51778;SDS011;37843;53.266;6.746;2022-07-10T04:46:54;6.22;;;1.73;;
51778;SDS011;37843;53.266;6.746;2022-07-10T04:49:20;5.15;;;2.17;;
51778;SDS011;37843;53.266;6.746;2022-07-10T04:51:46;5.07;;;1.88;;
51778;SDS011;37843;53.266;6.746;2022-07-10T04:54:12;5.43;;;1.95;;
51778;SDS011;37843;53.266;6.746;2022-07-10T04:56:38;7.60;;;1.67;;
51778;SDS011;37843;53.266;6.746;2022-07-10T04:59:05;3.40;;;1.63;;
51778;SDS011;37843;53.266;6.746;2022-07-10T05:01:31;8.48;;;2.13;;
51778;SDS011;37843;53.266;6.746;2022-07-10T05:03:57;4.75;;;2.10;;
51778;SDS011;37843;53.266;6.746;2022-07-10T05:06:23;8.35;;;2.20;;
51778;SDS011;37843;53.266;6.746;2022-07-10T05:08:49;10.23;;;2.30;;
51778;SDS011;37843;53.266;6.746;2022-07-10T05:11:14;6.22;;;1.75;;
51778;SDS011;37843;53.266;6.746;2022-07-10T05:13:41;11.52;;;2.05;;
51778;SDS011;37843;53.266;6.746;2022-07-10T05:16:10;4.63;;;1.75;;
51778;SDS011;37843;53.266;6.746;2022-07-10T05:18:38;6.78;;;2.00;;
51778;SDS011;37843;53.266;6.746;2022-07-10T05:21:04;5.40;;;1.70;;
51778;SDS011;37843;53.266;6.746;2022-07-10T05:23:30;6.45;;;3.25;;
51778;SDS011;37843;53.266;6.746;2022-07-10T05:25:56;5.40;;;2.25;;
51778;SDS011;37843;53.266;6.746;2022-07-10T05:28:22;6.35;;;1.90;;
51778;SDS011;37843;53.266;6.746;2022-07-10T05:30:48;5.20;;;1.90;;
51778;SDS011;37843;53.266;6.746;2022-07-10T05:33:15;7.47;;;1.88;;
51778;SDS011;37843;53.266;6.746;2022-07-10T05:35:41;5.68;;;2.03;;
51778;SDS011;37843;53.266;6.746;2022-07-10T05:38:07;6.07;;;1.70;;
51778;SDS011;37843;53.266;6.746;2022-07-10T05:40:33;6.47;;;2.17;;
51778;SDS011;37843;53.266;6.746;2022-07-10T05:42:59;4.93;;;1.50;;
51778;SDS011;37843;53.266;6.746;2022-07-10T05:45:26;4.75;;;1.70;;
51778;SDS011;37843;53.266;6.746;2022-07-10T05:47:52;8.43;;;1.80;;
51778;SDS011;37843;53.266;6.746;2022-07-10T05:50:18;5.80;;;1.60;;
51778;SDS011;37843;53.266;6.746;2022-07-10T05:52:44;5.90;;;2.08;;
51778;SDS011;37843;53.266;6.746;2022-07-10T05:55:10;5.47;;;1.63;;
51778;SDS011;37843;53.266;6.746;2022-07-10T05:57:37;6.63;;;1.83;;
51778;SDS011;37843;53.266;6.746;2022-07-10T06:00:04;9.05;;;2.15;;
51778;SDS011;37843;53.266;6.746;2022-07-10T06:02:30;5.47;;;1.80;;
51778;SDS011;37843;53.266;6.746;2022-07-10T06:04:56;7.90;;;1.50;;
51778;SDS011;37843;53.266;6.746;2022-07-10T06:07:22;4.57;;;1.38;;
51778;SDS011;37843;53.266;6.746;2022-07-10T06:09:49;6.72;;;1.85;;
51778;SDS011;37843;53.266;6.746;2022-07-10T06:12:15;6.43;;;1.85;;
51778;SDS011;37843;53.266;6.746;2022-07-10T06:14:41;4.40;;;1.80;;
51778;SDS011;37843;53.266;6.746;2022-07-10T06:17:07;5.88;;;1.83;;
51778;SDS011;37843;53.266;6.746;2022-07-10T06:19:33;3.30;;;1.27;;
51778;SDS011;37843;53.266;6.746;2022-07-10T06:22:00;4.63;;;1.58;;
51778;SDS011;37843;53.266;6.746;2022-07-10T06:24:45;2.28;;;1.08;;
51778;SDS011;37843;53.266;6.746;2022-07-10T06:27:11;2.42;;;1.27;;
51778;SDS011;37843;53.266;6.746;2022-07-10T06:29:37;4.90;;;1.48;;
51778;SDS011;37843;53.266;6.746;2022-07-10T06:32:03;5.78;;;1.50;;
51778;SDS011;37843;53.266;6.746;2022-07-10T06:34:30;6.13;;;2.10;;
51778;SDS011;37843;53.266;6.746;2022-07-10T06:36:56;3.85;;;1.48;;
51778;SDS011;37843;53.266;6.746;2022-07-10T06:39:22;2.92;;;1.25;;
51778;SDS011;37843;53.266;6.746;2022-07-10T06:41:48;6.80;;;1.70;;
51778;SDS011;37843;53.266;6.746;2022-07-10T06:44:15;4.20;;;1.70;;
51778;SDS011;37843;53.266;6.746;2022-07-10T06:46:41;7.82;;;1.52;;
51778;SDS011;37843;53.266;6.746;2022-07-10T06:49:07;4.68;;;1.50;;
51778;SDS011;37843;53.266;6.746;2022-07-10T06:51:34;4.63;;;1.60;;
51778;SDS011;37843;53.266;6.746;2022-07-10T06:54:00;3.58;;;1.10;;
51778;SDS011;37843;53.266;6.746;2022-07-10T06:56:26;6.60;;;1.55;;
51778;SDS011;37843;53.266;6.746;2022-07-10T06:58:52;4.55;;;1.77;;
51778;SDS011;37843;53.266;6.746;2022-07-10T07:01:18;4.13;;;1.58;;
51778;SDS011;37843;53.266;6.746;2022-07-10T07:03:44;5.70;;;1.55;;
51778;SDS011;37843;53.266;6.746;2022-07-10T07:06:10;6.20;;;1.45;;
51778;SDS011;37843;53.266;6.746;2022-07-10T07:08:36;4.15;;;1.50;;
51778;SDS011;37843;53.266;6.746;2022-07-10T07:11:03;7.35;;;1.52;;
51778;SDS011;37843;53.266;6.746;2022-07-10T07:13:29;3.47;;;1.45;;
51778;SDS011;37843;53.266;6.746;2022-07-10T07:15:55;4.10;;;1.30;;
51778;SDS011;37843;53.266;6.746;2022-07-10T07:18:26;4.45;;;1.70;;
51778;SDS011;37843;53.266;6.746;2022-07-10T07:21:00;5.72;;;1.65;;
51778;SDS011;37843;53.266;6.746;2022-07-10T07:23:45;4.35;;;1.40;;
51778;SDS011;37843;53.266;6.746;2022-07-10T07:26:11;2.75;;;1.17;;
51778;SDS011;37843;53.266;6.746;2022-07-10T07:28:37;4.85;;;1.85;;
51778;SDS011;37843;53.266;6.746;2022-07-10T07:31:04;4.72;;;1.13;;
51778;SDS011;37843;53.266;6.746;2022-07-10T07:33:30;4.22;;;1.15;;
51778;SDS011;37843;53.266;6.746;2022-07-10T07:35:56;3.67;;;1.52;;
51778;SDS011;37843;53.266;6.746;2022-07-10T07:38:22;3.50;;;1.45;;
51778;SDS011;37843;53.266;6.746;2022-07-10T07:40:48;2.75;;;1.13;;
51778;SDS011;37843;53.266;6.746;2022-07-10T07:43:14;4.53;;;1.50;;
51778;SDS011;37843;53.266;6.746;2022-07-10T07:45:40;4.78;;;1.40;;
51778;SDS011;37843;53.266;6.746;2022-07-10T07:48:06;4.60;;;1.35;;
51778;SDS011;37843;53.266;6.746;2022-07-10T07:50:34;4.40;;;1.27;;
51778;SDS011;37843;53.266;6.746;2022-07-10T07:53:01;10.20;;;1.60;;
51778;SDS011;37843;53.266;6.746;2022-07-10T07:55:28;1.55;;;0.98;;
51778;SDS011;37843;53.266;6.746;2022-07-10T07:57:54;2.80;;;1.13;;
51778;SDS011;37843;53.266;6.746;2022-07-10T08:00:22;4.45;;;1.25;;
51778;SDS011;37843;53.266;6.746;2022-07-10T08:02:48;1.67;;;0.90;;
51778;SDS011;37843;53.266;6.746;2022-07-10T08:05:15;3.60;;;1.27;;
51778;SDS011;37843;53.266;6.746;2022-07-10T08:07:45;2.17;;;0.75;;
51778;SDS011;37843;53.266;6.746;2022-07-10T08:10:12;4.88;;;1.33;;
51778;SDS011;37843;53.266;6.746;2022-07-10T08:12:39;3.25;;;1.02;;
51778;SDS011;37843;53.266;6.746;2022-07-10T08:15:07;3.67;;;1.13;;
51778;SDS011;37843;53.266;6.746;2022-07-10T08:17:33;3.95;;;1.20;;
51778;SDS011;37843;53.266;6.746;2022-07-10T08:19:59;2.20;;;1.10;;
51778;SDS011;37843;53.266;6.746;2022-07-10T08:22:26;2.90;;;1.33;;
51778;SDS011;37843;53.266;6.746;2022-07-10T08:24:52;3.05;;;1.48;;
51778;SDS011;37843;53.266;6.746;2022-07-10T08:27:18;3.47;;;1.27;;
51778;SDS011;37843;53.266;6.746;2022-07-10T08:29:44;3.28;;;1.17;;
51778;SDS011;37843;53.266;6.746;2022-07-10T08:32:11;2.38;;;1.20;;
51778;SDS011;37843;53.266;6.746;2022-07-10T08:34:37;3.00;;;1.42;;
51778;SDS011;37843;53.266;6.746;2022-07-10T08:37:03;3.42;;;1.40;;
51778;SDS011;37843;53.266;6.746;2022-07-10T08:39:30;3.80;;;1.10;;
51778;SDS011;37843;53.266;6.746;2022-07-10T08:41:56;1.98;;;0.65;;
51778;SDS011;37843;53.266;6.746;2022-07-10T08:44:22;5.25;;;1.30;;
51778;SDS011;37843;53.266;6.746;2022-07-10T08:46:49;1.85;;;0.90;;
51778;SDS011;37843;53.266;6.746;2022-07-10T08:49:15;1.17;;;0.77;;
51778;SDS011;37843;53.266;6.746;2022-07-10T08:54:30;1.23;;;0.60;;
51778;SDS011;37843;53.266;6.746;2022-07-10T08:56:56;2.28;;;0.80;;
51778;SDS011;37843;53.266;6.746;2022-07-10T08:59:23;1.05;;;0.43;;
51778;SDS011;37843;53.266;6.746;2022-07-10T09:01:49;2.65;;;0.70;;
51778;SDS011;37843;53.266;6.746;2022-07-10T09:04:16;1.92;;;0.70;;
51778;SDS011;37843;53.266;6.746;2022-07-10T09:06:43;2.35;;;1.13;;
51778;SDS011;37843;53.266;6.746;2022-07-10T09:09:09;3.30;;;0.98;;
51778;SDS011;37843;53.266;6.746;2022-07-10T09:11:37;2.95;;;1.02;;
51778;SDS011;37843;53.266;6.746;2022-07-10T09:14:06;5.43;;;1.00;;
51778;SDS011;37843;53.266;6.746;2022-07-10T09:16:34;3.38;;;1.08;;
51778;SDS011;37843;53.266;6.746;2022-07-10T09:19:17;4.28;;;1.60;;
51778;SDS011;37843;53.266;6.746;2022-07-10T09:21:45;2.65;;;1.20;;
51778;SDS011;37843;53.266;6.746;2022-07-10T09:24:11;3.42;;;1.15;;
51778;SDS011;37843;53.266;6.746;2022-07-10T09:26:38;3.85;;;1.30;;
51778;SDS011;37843;53.266;6.746;2022-07-10T09:29:05;2.30;;;0.80;;
51778;SDS011;37843;53.266;6.746;2022-07-10T09:31:54;3.67;;;0.98;;
51778;SDS011;37843;53.266;6.746;2022-07-10T09:37:17;4.03;;;1.00;;
51778;SDS011;37843;53.266;6.746;2022-07-10T09:42:34;0.93;;;0.68;;
51778;SDS011;37843;53.266;6.746;2022-07-10T09:47:37;2.30;;;1.27;;
51778;SDS011;37843;53.266;6.746;2022-07-10T09:50:03;3.35;;;0.90;;
51778;SDS011;37843;53.266;6.746;2022-07-10T09:52:29;4.10;;;1.05;;
51778;SDS011;37843;53.266;6.746;2022-07-10T09:54:55;2.80;;;1.13;;
51778;SDS011;37843;53.266;6.746;2022-07-10T09:57:22;1.98;;;1.08;;
51778;SDS011;37843;53.266;6.746;2022-07-10T09:59:52;2.65;;;0.93;;
51778;SDS011;37843;53.266;6.746;2022-07-10T10:02:19;3.25;;;0.90;;
51778;SDS011;37843;53.266;6.746;2022-07-10T10:04:45;2.95;;;1.42;;
51778;SDS011;37843;53.266;6.746;2022-07-10T10:07:16;3.00;;;1.08;;
51778;SDS011;37843;53.266;6.746;2022-07-10T10:09:48;3.63;;;1.20;;
51778;SDS011;37843;53.266;6.746;2022-07-10T10:14:57;3.13;;;1.42;;
51778;SDS011;37843;53.266;6.746;2022-07-10T10:17:24;4.63;;;1.20;;
51778;SDS011;37843;53.266;6.746;2022-07-10T10:19:51;2.10;;;1.30;;
51778;SDS011;37843;53.266;6.746;2022-07-10T10:22:36;1.77;;;1.05;;
51778;SDS011;37843;53.266;6.746;2022-07-10T10:25:06;4.47;;;1.10;;
51778;SDS011;37843;53.266;6.746;2022-07-10T10:27:32;5.97;;;1.05;;
51778;SDS011;37843;53.266;6.746;2022-07-10T10:29:59;2.55;;;1.00;;
51778;SDS011;37843;53.266;6.746;2022-07-10T10:32:26;3.25;;;1.05;;
51778;SDS011;37843;53.266;6.746;2022-07-10T10:34:53;2.97;;;1.27;;
51778;SDS011;37843;53.266;6.746;2022-07-10T10:39:56;2.15;;;1.13;;
51778;SDS011;37843;53.266;6.746;2022-07-10T10:42:32;2.95;;;1.23;;
51778;SDS011;37843;53.266;6.746;2022-07-10T10:47:59;3.33;;;1.30;;
51778;SDS011;37843;53.266;6.746;2022-07-10T10:50:42;3.08;;;1.60;;
51778;SDS011;37843;53.266;6.746;2022-07-10T10:53:18;1.80;;;1.40;;
51778;SDS011;37843;53.266;6.746;2022-07-10T10:58:37;3.17;;;1.40;;
51778;SDS011;37843;53.266;6.746;2022-07-10T11:01:03;3.17;;;1.17;;
51778;SDS011;37843;53.266;6.746;2022-07-10T11:03:30;4.45;;;1.50;;
51778;SDS011;37843;53.266;6.746;2022-07-10T11:05:56;2.60;;;1.55;;
51778;SDS011;37843;53.266;6.746;2022-07-10T11:08:38;4.40;;;1.50;;
51778;SDS011;37843;53.266;6.746;2022-07-10T11:13:50;3.70;;;1.77;;
51778;SDS011;37843;53.266;6.746;2022-07-10T11:16:22;3.22;;;1.75;;
51778;SDS011;37843;53.266;6.746;2022-07-10T11:18:52;5.35;;;1.98;;
51778;SDS011;37843;53.266;6.746;2022-07-10T11:21:22;4.70;;;2.13;;
51778;SDS011;37843;53.266;6.746;2022-07-10T11:26:22;5.95;;;2.40;;
51778;SDS011;37843;53.266;6.746;2022-07-10T11:28:59;4.25;;;1.92;;
51778;SDS011;37843;53.266;6.746;2022-07-10T11:31:26;5.22;;;2.47;;
51778;SDS011;37843;53.266;6.746;2022-07-10T11:33:53;2.97;;;1.83;;
51778;SDS011;37843;53.266;6.746;2022-07-10T11:36:21;5.88;;;1.80;;
51778;SDS011;37843;53.266;6.746;2022-07-10T11:38:56;3.78;;;1.65;;
51778;SDS011;37843;53.266;6.746;2022-07-10T11:41:23;5.03;;;1.90;;
51778;SDS011;37843;53.266;6.746;2022-07-10T11:43:56;6.90;;;2.67;;
51778;SDS011;37843;53.266;6.746;2022-07-10T11:46:28;4.10;;;1.63;;
51778;SDS011;37843;53.266;6.746;2022-07-10T11:48:55;5.35;;;2.00;;
51778;SDS011;37843;53.266;6.746;2022-07-10T11:51:26;4.40;;;2.03;;
51778;SDS011;37843;53.266;6.746;2022-07-10T11:53:53;5.22;;;1.80;;
51778;SDS011;37843;53.266;6.746;2022-07-10T11:56:20;5.93;;;1.65;;
51778;SDS011;37843;53.266;6.746;2022-07-10T12:01:25;4.07;;;1.60;;
51778;SDS011;37843;53.266;6.746;2022-07-10T12:03:56;2.20;;;1.50;;
51778;SDS011;37843;53.266;6.746;2022-07-10T12:06:24;3.58;;;1.70;;
51778;SDS011;37843;53.266;6.746;2022-07-10T12:08:50;3.70;;;1.50;;
51778;SDS011;37843;53.266;6.746;2022-07-10T12:11:18;3.25;;;1.70;;
51778;SDS011;37843;53.266;6.746;2022-07-10T12:13:44;3.70;;;2.08;;
51778;SDS011;37843;53.266;6.746;2022-07-10T12:16:11;3.78;;;1.80;;
51778;SDS011;37843;53.266;6.746;2022-07-10T12:18:37;3.08;;;1.55;;
51778;SDS011;37843;53.266;6.746;2022-07-10T12:21:06;5.25;;;2.00;;
51778;SDS011;37843;53.266;6.746;2022-07-10T12:23:33;6.70;;;1.55;;
51778;SDS011;37843;53.266;6.746;2022-07-10T12:26:09;2.08;;;1.33;;
51778;SDS011;37843;53.266;6.746;2022-07-10T12:31:32;4.35;;;1.55;;
51778;SDS011;37843;53.266;6.746;2022-07-10T12:34:00;4.00;;;2.03;;
51778;SDS011;37843;53.266;6.746;2022-07-10T12:36:47;3.10;;;1.80;;
51778;SDS011;37843;53.266;6.746;2022-07-10T12:39:14;4.53;;;1.35;;
51778;SDS011;37843;53.266;6.746;2022-07-10T12:41:54;4.72;;;1.50;;
51778;SDS011;37843;53.266;6.746;2022-07-10T12:47:12;3.60;;;1.73;;
51778;SDS011;37843;53.266;6.746;2022-07-10T12:49:49;5.78;;;1.90;;
51778;SDS011;37843;53.266;6.746;2022-07-10T12:57:16;4.07;;;1.88;;
51778;SDS011;37843;53.266;6.746;2022-07-10T12:59:45;3.47;;;1.90;;
51778;SDS011;37843;53.266;6.746;2022-07-10T13:02:15;3.17;;;1.48;;
51778;SDS011;37843;53.266;6.746;2022-07-10T13:04:51;7.85;;;2.22;;
51778;SDS011;37843;53.266;6.746;2022-07-10T13:07:17;6.10;;;2.10;;
51778;SDS011;37843;53.266;6.746;2022-07-10T13:09:44;8.13;;;2.03;;
51778;SDS011;37843;53.266;6.746;2022-07-10T13:12:12;2.60;;;1.60;;
51778;SDS011;37843;53.266;6.746;2022-07-10T13:14:39;3.80;;;1.90;;
51778;SDS011;37843;53.266;6.746;2022-07-10T13:17:05;4.25;;;2.13;;
51778;SDS011;37843;53.266;6.746;2022-07-10T13:19:31;5.95;;;2.60;;
51778;SDS011;37843;53.266;6.746;2022-07-10T13:21:57;4.22;;;2.20;;
51778;SDS011;37843;53.266;6.746;2022-07-10T13:24:23;5.05;;;2.00;;
51778;SDS011;37843;53.266;6.746;2022-07-10T13:26:53;2.83;;;1.80;;
51778;SDS011;37843;53.266;6.746;2022-07-10T13:29:22;3.08;;;1.85;;
51778;SDS011;37843;53.266;6.746;2022-07-10T13:31:48;5.72;;;2.03;;
51778;SDS011;37843;53.266;6.746;2022-07-10T13:34:14;3.03;;;1.77;;
51778;SDS011;37843;53.266;6.746;2022-07-10T13:36:40;3.05;;;1.70;;
51778;SDS011;37843;53.266;6.746;2022-07-10T13:39:08;4.15;;;1.95;;
51778;SDS011;37843;53.266;6.746;2022-07-10T13:41:34;3.60;;;1.77;;
51778;SDS011;37843;53.266;6.746;2022-07-10T13:44:00;3.95;;;1.58;;
51778;SDS011;37843;53.266;6.746;2022-07-10T13:46:27;3.50;;;1.90;;
51778;SDS011;37843;53.266;6.746;2022-07-10T13:48:53;4.38;;;1.83;;
51778;SDS011;37843;53.266;6.746;2022-07-10T13:51:19;2.70;;;1.50;;
51778;SDS011;37843;53.266;6.746;2022-07-10T13:53:45;4.90;;;1.90;;
51778;SDS011;37843;53.266;6.746;2022-07-10T13:56:13;5.35;;;1.65;;
51778;SDS011;37843;53.266;6.746;2022-07-10T13:58:39;3.38;;;1.58;;
51778;SDS011;37843;53.266;6.746;2022-07-10T14:01:05;3.70;;;2.22;;
51778;SDS011;37843;53.266;6.746;2022-07-10T14:03:31;4.47;;;2.33;;
51778;SDS011;37843;53.266;6.746;2022-07-10T14:05:58;3.60;;;1.77;;
51778;SDS011;37843;53.266;6.746;2022-07-10T14:08:24;6.00;;;2.45;;
51778;SDS011;37843;53.266;6.746;2022-07-10T14:10:51;3.30;;;1.80;;
51778;SDS011;37843;53.266;6.746;2022-07-10T14:13:17;4.05;;;1.70;;
51778;SDS011;37843;53.266;6.746;2022-07-10T14:15:43;5.70;;;2.00;;
51778;SDS011;37843;53.266;6.746;2022-07-10T14:18:10;2.88;;;1.83;;
51778;SDS011;37843;53.266;6.746;2022-07-10T14:20:36;3.20;;;1.65;;
51778;SDS011;37843;53.266;6.746;2022-07-10T14:23:21;3.25;;;1.65;;
51778;SDS011;37843;53.266;6.746;2022-07-10T14:25:48;3.20;;;2.00;;
51778;SDS011;37843;53.266;6.746;2022-07-10T14:28:14;3.35;;;1.90;;
51778;SDS011;37843;53.266;6.746;2022-07-10T14:30:40;3.80;;;1.67;;
51778;SDS011;37843;53.266;6.746;2022-07-10T14:33:07;3.83;;;1.73;;
51778;SDS011;37843;53.266;6.746;2022-07-10T14:35:33;4.07;;;1.95;;
51778;SDS011;37843;53.266;6.746;2022-07-10T14:38:00;3.83;;;1.83;;
51778;SDS011;37843;53.266;6.746;2022-07-10T14:40:26;5.35;;;1.85;;
51778;SDS011;37843;53.266;6.746;2022-07-10T14:42:52;5.22;;;2.00;;
51778;SDS011;37843;53.266;6.746;2022-07-10T14:45:21;3.08;;;1.60;;
51778;SDS011;37843;53.266;6.746;2022-07-10T14:47:49;3.95;;;1.70;;
51778;SDS011;37843;53.266;6.746;2022-07-10T14:50:15;3.92;;;1.83;;
51778;SDS011;37843;53.266;6.746;2022-07-10T14:52:44;4.45;;;1.70;;
51778;SDS011;37843;53.266;6.746;2022-07-10T14:55:11;3.92;;;2.10;;
51778;SDS011;37843;53.266;6.746;2022-07-10T14:57:37;4.07;;;1.95;;
51778;SDS011;37843;53.266;6.746;2022-07-10T15:00:04;6.03;;;2.13;;
51778;SDS011;37843;53.266;6.746;2022-07-10T15:02:30;4.47;;;1.80;;
51778;SDS011;37843;53.266;6.746;2022-07-10T15:04:58;4.85;;;2.75;;
51778;SDS011;37843;53.266;6.746;2022-07-10T15:07:26;6.07;;;2.22;;
51778;SDS011;37843;53.266;6.746;2022-07-10T15:09:52;3.92;;;2.03;;
51778;SDS011;37843;53.266;6.746;2022-07-10T15:12:19;3.80;;;2.25;;
51778;SDS011;37843;53.266;6.746;2022-07-10T15:14:45;4.15;;;2.10;;
51778;SDS011;37843;53.266;6.746;2022-07-10T15:17:14;3.88;;;2.17;;
51778;SDS011;37843;53.266;6.746;2022-07-10T15:19:41;3.63;;;2.00;;
51778;SDS011;37843;53.266;6.746;2022-07-10T15:22:07;5.97;;;1.98;;
51778;SDS011;37843;53.266;6.746;2022-07-10T15:24:33;4.85;;;2.40;;
51778;SDS011;37843;53.266;6.746;2022-07-10T15:26:59;6.05;;;2.20;;
51778;SDS011;37843;53.266;6.746;2022-07-10T15:29:25;5.45;;;2.08;;